sensor_id;sensor_type;location;lat;lon;timestamp;temperature;humidity
18513;DHT22;9385;48.380;9.744;2022-12-18T00:02:10;-2.20;99.90
18513;DHT22;9385;48.380;9.744;2022-12-18T00:04:36;-2.10;99.90
18513;DHT22;9385;48.380;9.744;2022-12-18T00:07:03;-2.10;99.90
18513;DHT22;9385;48.380;9.744;2022-12-18T00:09:30;-2.00;99.90
18513;DHT22;9385;48.380;9.744;2022-12-18T00:11:57;-2.00;99.90
18513;DHT22;9385;48.380;9.744;2022-12-18T00:14:24;-2.10;99.90
18513;DHT22;9385;48.380;9.744;2022-12-18T00:16:52;-2.10;99.90
18513;DHT22;9385;48.380;9.744;2022-12-18T00:19:20;-2.20;99.90
18513;DHT22;9385;48.380;9.744;2022-12-18T00:21:47;-2.10;99.90
18513;DHT22;9385;48.380;9.744;2022-12-18T00:24:14;-2.00;99.90
18513;DHT22;9385;48.380;9.744;2022-12-18T00:26:41;-2.00;99.90
18513;DHT22;9385;48.380;9.744;2022-12-18T00:29:10;-2.00;99.90
18513;DHT22;9385;48.380;9.744;2022-12-18T00:31:39;-2.10;99.90
18513;DHT22;9385;48.380;9.744;2022-12-18T00:34:08;-2.10;99.90
18513;DHT22;9385;48.380;9.744;2022-12-18T00:36:39;-2.10;99.90
18513;DHT22;9385;48.380;9.744;2022-12-18T00:39:06;-2.10;99.90
18513;DHT22;9385;48.380;9.744;2022-12-18T00:41:32;-2.00;99.90
18513;DHT22;9385;48.380;9.744;2022-12-18T00:44:29;-1.90;99.90
18513;DHT22;9385;48.380;9.744;2022-12-18T00:46:55;-2.00;99.90
18513;DHT22;9385;48.380;9.744;2022-12-18T00:49:22;-2.00;99.90
18513;DHT22;9385;48.380;9.744;2022-12-18T00:51:50;-2.00;99.90
18513;DHT22;9385;48.380;9.744;2022-12-18T00:54:17;-2.00;99.90
18513;DHT22;9385;48.380;9.744;2022-12-18T00:56:44;-2.00;99.90
18513;DHT22;9385;48.380;9.744;2022-12-18T00:59:12;-2.00;99.90
18513;DHT22;9385;48.380;9.744;2022-12-18T01:01:38;-2.00;99.90
18513;DHT22;9385;48.380;9.744;2022-12-18T01:04:05;-2.00;99.90
18513;DHT22;9385;48.380;9.744;2022-12-18T01:06:32;-2.00;99.90
18513;DHT22;9385;48.380;9.744;2022-12-18T01:09:01;-2.10;99.90
18513;DHT22;9385;48.380;9.744;2022-12-18T01:11:28;-2.10;99.90
18513;DHT22;9385;48.380;9.744;2022-12-18T01:13:55;-2.10;99.90
18513;DHT22;9385;48.380;9.744;2022-12-18T01:16:22;-2.10;99.90
18513;DHT22;9385;48.380;9.744;2022-12-18T01:18:52;-2.10;99.90
18513;DHT22;9385;48.380;9.744;2022-12-18T01:21:19;-2.20;99.90
18513;DHT22;9385;48.380;9.744;2022-12-18T01:23:46;-2.10;99.90
18513;DHT22;9385;48.380;9.744;2022-12-18T01:26:15;-2.10;99.90
18513;DHT22;9385;48.380;9.744;2022-12-18T01:28:43;-2.00;99.90
18513;DHT22;9385;48.380;9.744;2022-12-18T01:31:12;-2.00;99.90
18513;DHT22;9385;48.380;9.744;2022-12-18T01:33:39;-2.00;99.90
18513;DHT22;9385;48.380;9.744;2022-12-18T01:36:07;-2.10;99.90
18513;DHT22;9385;48.380;9.744;2022-12-18T01:38:34;-2.10;99.90
18513;DHT22;9385;48.380;9.744;2022-12-18T01:41:01;-2.00;99.90
18513;DHT22;9385;48.380;9.744;2022-12-18T01:43:57;-2.00;99.90
18513;DHT22;9385;48.380;9.744;2022-12-18T01:46:26;-2.00;99.90
18513;DHT22;9385;48.380;9.744;2022-12-18T01:48:56;-2.00;99.90
18513;DHT22;9385;48.380;9.744;2022-12-18T01:51:24;-2.00;99.90
18513;DHT22;9385;48.380;9.744;2022-12-18T01:53:52;-2.10;99.90
18513;DHT22;9385;48.380;9.744;2022-12-18T01:56:20;-2.10;99.90
18513;DHT22;9385;48.380;9.744;2022-12-18T01:58:54;-2.10;99.90
18513;DHT22;9385;48.380;9.744;2022-12-18T02:01:24;-2.00;99.90
18513;DHT22;9385;48.380;9.744;2022-12-18T02:03:52;-1.90;99.90
18513;DHT22;9385;48.380;9.744;2022-12-18T02:06:23;-1.90;99.90
18513;DHT22;9385;48.380;9.744;2022-12-18T02:09:07;-1.90;99.90
18513;DHT22;9385;48.380;9.744;2022-12-18T02:11:42;-1.90;99.90
18513;DHT22;9385;48.380;9.744;2022-12-18T02:14:18;-2.00;99.90
18513;DHT22;9385;48.380;9.744;2022-12-18T02:16:54;-2.00;99.90
18513;DHT22;9385;48.380;9.744;2022-12-18T02:19:39;-2.00;99.90
18513;DHT22;9385;48.380;9.744;2022-12-18T02:22:23;-1.90;99.90
18513;DHT22;9385;48.380;9.744;2022-12-18T02:25:00;-2.00;99.90
18513;DHT22;9385;48.380;9.744;2022-12-18T02:27:33;-1.90;99.90
18513;DHT22;9385;48.380;9.744;2022-12-18T02:30:03;-1.90;99.90
18513;DHT22;9385;48.380;9.744;2022-12-18T02:32:35;-1.90;99.90
18513;DHT22;9385;48.380;9.744;2022-12-18T02:35:05;-1.90;99.90
18513;DHT22;9385;48.380;9.744;2022-12-18T02:37:33;-1.90;99.90
18513;DHT22;9385;48.380;9.744;2022-12-18T02:40:02;-1.80;99.90
18513;DHT22;9385;48.380;9.744;2022-12-18T02:42:32;-1.80;99.90
18513;DHT22;9385;48.380;9.744;2022-12-18T02:44:59;-1.70;99.90
18513;DHT22;9385;48.380;9.744;2022-12-18T02:47:29;-1.60;99.90
18513;DHT22;9385;48.380;9.744;2022-12-18T02:50:02;-1.60;99.90
18513;DHT22;9385;48.380;9.744;2022-12-18T02:52:35;-1.60;99.90
18513;DHT22;9385;48.380;9.744;2022-12-18T02:55:16;-1.60;99.90
18513;DHT22;9385;48.380;9.744;2022-12-18T02:57:50;-1.70;99.90
18513;DHT22;9385;48.380;9.744;2022-12-18T03:00:22;-1.70;99.90
18513;DHT22;9385;48.380;9.744;2022-12-18T03:02:54;-1.70;99.90
18513;DHT22;9385;48.380;9.744;2022-12-18T03:05:28;-1.70;99.90
18513;DHT22;9385;48.380;9.744;2022-12-18T03:07:59;-1.70;99.90
18513;DHT22;9385;48.380;9.744;2022-12-18T03:10:29;-1.80;99.90
18513;DHT22;9385;48.380;9.744;2022-12-18T03:13:03;-1.80;99.90
18513;DHT22;9385;48.380;9.744;2022-12-18T03:15:34;-1.70;99.90
18513;DHT22;9385;48.380;9.744;2022-12-18T03:18:04;-1.70;99.90
18513;DHT22;9385;48.380;9.744;2022-12-18T03:20:34;-1.70;99.90
18513;DHT22;9385;48.380;9.744;2022-12-18T03:23:08;-1.60;99.90
18513;DHT22;9385;48.380;9.744;2022-12-18T03:25:38;-1.70;99.90
18513;DHT22;9385;48.380;9.744;2022-12-18T03:28:09;-1.70;99.90
18513;DHT22;9385;48.380;9.744;2022-12-18T03:30:38;-1.70;99.90
18513;DHT22;9385;48.380;9.744;2022-12-18T03:33:09;-1.60;99.90
18513;DHT22;9385;48.380;9.744;2022-12-18T03:35:39;-1.60;99.90
18513;DHT22;9385;48.380;9.744;2022-12-18T03:38:07;-1.70;99.90
18513;DHT22;9385;48.380;9.744;2022-12-18T03:40:43;-1.70;99.90
18513;DHT22;9385;48.380;9.744;2022-12-18T03:43:20;-1.70;99.90
18513;DHT22;9385;48.380;9.744;2022-12-18T03:45:55;-1.70;99.90
18513;DHT22;9385;48.380;9.744;2022-12-18T03:48:31;-1.60;99.90
18513;DHT22;9385;48.380;9.744;2022-12-18T03:51:03;-1.60;99.90
18513;DHT22;9385;48.380;9.744;2022-12-18T03:53:36;-1.70;99.90
18513;DHT22;9385;48.380;9.744;2022-12-18T03:56:06;-1.70;99.90
18513;DHT22;9385;48.380;9.744;2022-12-18T03:58:37;-1.70;99.90
18513;DHT22;9385;48.380;9.744;2022-12-18T04:01:09;-1.80;99.90
18513;DHT22;9385;48.380;9.744;2022-12-18T04:03:39;-1.80;99.90
18513;DHT22;9385;48.380;9.744;2022-12-18T04:06:07;-1.80;99.90
18513;DHT22;9385;48.380;9.744;2022-12-18T04:08:35;-1.80;99.90
18513;DHT22;9385;48.380;9.744;2022-12-18T04:11:02;-1.80;99.90
18513;DHT22;9385;48.380;9.744;2022-12-18T04:13:32;-1.70;99.90
18513;DHT22;9385;48.380;9.744;2022-12-18T04:16:01;-1.70;99.90
18513;DHT22;9385;48.380;9.744;2022-12-18T04:18:28;-1.70;99.90
18513;DHT22;9385;48.380;9.744;2022-12-18T04:20:55;-1.70;99.90
18513;DHT22;9385;48.380;9.744;2022-12-18T04:23:22;-1.80;99.90
18513;DHT22;9385;48.380;9.744;2022-12-18T04:25:49;-1.70;99.90
18513;DHT22;9385;48.380;9.744;2022-12-18T04:28:16;-1.80;99.90
18513;DHT22;9385;48.380;9.744;2022-12-18T04:30:42;-1.70;99.90
18513;DHT22;9385;48.380;9.744;2022-12-18T04:33:11;-1.70;99.90
18513;DHT22;9385;48.380;9.744;2022-12-18T04:35:38;-1.70;99.90
18513;DHT22;9385;48.380;9.744;2022-12-18T04:38:06;-1.70;99.90
18513;DHT22;9385;48.380;9.744;2022-12-18T04:40:33;-1.80;99.90
18513;DHT22;9385;48.380;9.744;2022-12-18T04:43:01;-1.80;99.90
18513;DHT22;9385;48.380;9.744;2022-12-18T04:45:28;-1.70;99.90
18513;DHT22;9385;48.380;9.744;2022-12-18T04:47:57;-1.70;99.90
18513;DHT22;9385;48.380;9.744;2022-12-18T04:50:25;-1.70;99.90
18513;DHT22;9385;48.380;9.744;2022-12-18T04:52:52;-1.60;99.90
18513;DHT22;9385;48.380;9.744;2022-12-18T04:55:20;-1.60;99.90
18513;DHT22;9385;48.380;9.744;2022-12-18T04:57:47;-1.60;99.90
18513;DHT22;9385;48.380;9.744;2022-12-18T05:00:14;-1.60;99.90
18513;DHT22;9385;48.380;9.744;2022-12-18T05:02:41;-1.60;99.90
18513;DHT22;9385;48.380;9.744;2022-12-18T05:05:09;-1.60;99.90
18513;DHT22;9385;48.380;9.744;2022-12-18T05:07:37;-1.70;99.90
18513;DHT22;9385;48.380;9.744;2022-12-18T05:10:05;-1.70;99.90
18513;DHT22;9385;48.380;9.744;2022-12-18T05:12:32;-1.80;99.90
18513;DHT22;9385;48.380;9.744;2022-12-18T05:14:59;-1.70;99.90
18513;DHT22;9385;48.380;9.744;2022-12-18T05:17:26;-1.60;99.90
18513;DHT22;9385;48.380;9.744;2022-12-18T05:19:53;-1.40;99.90
18513;DHT22;9385;48.380;9.744;2022-12-18T05:22:20;-1.50;99.90
18513;DHT22;9385;48.380;9.744;2022-12-18T05:24:48;-1.50;99.90
18513;DHT22;9385;48.380;9.744;2022-12-18T05:27:15;-1.70;99.90
18513;DHT22;9385;48.380;9.744;2022-12-18T05:29:43;-1.70;99.90
18513;DHT22;9385;48.380;9.744;2022-12-18T05:32:09;-1.80;99.90
18513;DHT22;9385;48.380;9.744;2022-12-18T05:34:37;-1.80;99.90
18513;DHT22;9385;48.380;9.744;2022-12-18T05:37:04;-1.80;99.90
18513;DHT22;9385;48.380;9.744;2022-12-18T05:39:31;-1.90;99.90
18513;DHT22;9385;48.380;9.744;2022-12-18T05:41:59;-2.00;99.90
18513;DHT22;9385;48.380;9.744;2022-12-18T05:44:27;-2.00;99.90
18513;DHT22;9385;48.380;9.744;2022-12-18T05:46:54;-1.90;99.90
18513;DHT22;9385;48.380;9.744;2022-12-18T05:49:20;-1.80;99.90
18513;DHT22;9385;48.380;9.744;2022-12-18T05:51:48;-1.70;99.90
18513;DHT22;9385;48.380;9.744;2022-12-18T05:54:14;-1.70;99.90
18513;DHT22;9385;48.380;9.744;2022-12-18T05:56:41;-1.70;99.90
18513;DHT22;9385;48.380;9.744;2022-12-18T05:59:09;-1.60;99.90
18513;DHT22;9385;48.380;9.744;2022-12-18T06:01:36;-1.70;99.90
18513;DHT22;9385;48.380;9.744;2022-12-18T06:04:03;-1.80;99.90
18513;DHT22;9385;48.380;9.744;2022-12-18T06:06:31;-1.80;99.90
18513;DHT22;9385;48.380;9.744;2022-12-18T06:08:58;-1.70;99.90
18513;DHT22;9385;48.380;9.744;2022-12-18T06:11:27;-1.70;99.90
18513;DHT22;9385;48.380;9.744;2022-12-18T06:13:55;-1.70;99.90
18513;DHT22;9385;48.380;9.744;2022-12-18T06:16:23;-1.70;99.90
18513;DHT22;9385;48.380;9.744;2022-12-18T06:18:50;-1.60;99.90
18513;DHT22;9385;48.380;9.744;2022-12-18T06:21:17;-1.60;99.90
18513;DHT22;9385;48.380;9.744;2022-12-18T06:23:44;-1.70;99.90
18513;DHT22;9385;48.380;9.744;2022-12-18T06:26:12;-1.70;99.90
18513;DHT22;9385;48.380;9.744;2022-12-18T06:28:40;-1.80;99.90
18513;DHT22;9385;48.380;9.744;2022-12-18T06:31:07;-1.70;99.90
18513;DHT22;9385;48.380;9.744;2022-12-18T06:33:36;-1.70;99.90
18513;DHT22;9385;48.380;9.744;2022-12-18T06:36:06;-1.70;99.90
18513;DHT22;9385;48.380;9.744;2022-12-18T06:38:34;-1.70;99.90
18513;DHT22;9385;48.380;9.744;2022-12-18T06:41:06;-1.80;99.90
18513;DHT22;9385;48.380;9.744;2022-12-18T06:43:33;-1.80;99.90
18513;DHT22;9385;48.380;9.744;2022-12-18T06:46:01;-1.80;99.90
18513;DHT22;9385;48.380;9.744;2022-12-18T06:48:29;-1.70;99.90
18513;DHT22;9385;48.380;9.744;2022-12-18T06:50:58;-1.70;99.90
18513;DHT22;9385;48.380;9.744;2022-12-18T06:53:26;-1.70;99.90
18513;DHT22;9385;48.380;9.744;2022-12-18T06:55:59;-1.80;99.90
18513;DHT22;9385;48.380;9.744;2022-12-18T06:58:25;-1.90;99.90
18513;DHT22;9385;48.380;9.744;2022-12-18T07:00:53;-1.90;99.90
18513;DHT22;9385;48.380;9.744;2022-12-18T07:03:20;-2.00;99.90
18513;DHT22;9385;48.380;9.744;2022-12-18T07:05:46;-1.90;99.90
18513;DHT22;9385;48.380;9.744;2022-12-18T07:08:15;-1.90;99.90
18513;DHT22;9385;48.380;9.744;2022-12-18T07:10:42;-1.90;99.90
18513;DHT22;9385;48.380;9.744;2022-12-18T07:13:09;-1.90;99.90
18513;DHT22;9385;48.380;9.744;2022-12-18T07:15:36;-1.90;99.90
18513;DHT22;9385;48.380;9.744;2022-12-18T07:18:03;-1.90;99.90
18513;DHT22;9385;48.380;9.744;2022-12-18T07:20:30;-2.00;99.90
18513;DHT22;9385;48.380;9.744;2022-12-18T07:22:57;-2.10;99.90
18513;DHT22;9385;48.380;9.744;2022-12-18T07:25:25;-2.00;99.90
18513;DHT22;9385;48.380;9.744;2022-12-18T07:27:53;-1.90;99.90
18513;DHT22;9385;48.380;9.744;2022-12-18T07:30:20;-1.80;99.90
18513;DHT22;9385;48.380;9.744;2022-12-18T07:32:48;-1.80;99.90
18513;DHT22;9385;48.380;9.744;2022-12-18T07:35:15;-1.70;99.90
18513;DHT22;9385;48.380;9.744;2022-12-18T07:37:42;-1.80;99.90
18513;DHT22;9385;48.380;9.744;2022-12-18T07:40:10;-1.80;99.90
18513;DHT22;9385;48.380;9.744;2022-12-18T07:42:40;-1.80;99.90
18513;DHT22;9385;48.380;9.744;2022-12-18T07:45:09;-1.70;99.90
18513;DHT22;9385;48.380;9.744;2022-12-18T07:47:37;-1.70;99.90
18513;DHT22;9385;48.380;9.744;2022-12-18T07:50:05;-1.60;99.90
18513;DHT22;9385;48.380;9.744;2022-12-18T07:52:32;-1.60;99.90
18513;DHT22;9385;48.380;9.744;2022-12-18T07:55:00;-1.70;99.90
18513;DHT22;9385;48.380;9.744;2022-12-18T07:57:26;-1.70;99.90
18513;DHT22;9385;48.380;9.744;2022-12-18T07:59:55;-1.80;99.90
18513;DHT22;9385;48.380;9.744;2022-12-18T08:02:22;-1.70;99.90
18513;DHT22;9385;48.380;9.744;2022-12-18T08:04:49;-1.60;99.90
18513;DHT22;9385;48.380;9.744;2022-12-18T08:07:15;-1.60;99.90
18513;DHT22;9385;48.380;9.744;2022-12-18T08:09:42;-1.60;99.90
18513;DHT22;9385;48.380;9.744;2022-12-18T08:12:09;-1.60;99.90
18513;DHT22;9385;48.380;9.744;2022-12-18T08:14:36;-1.60;99.90
18513;DHT22;9385;48.380;9.744;2022-12-18T08:17:04;-1.60;99.90
18513;DHT22;9385;48.380;9.744;2022-12-18T08:19:31;-1.60;99.90
18513;DHT22;9385;48.380;9.744;2022-12-18T08:21:59;-1.60;99.90
18513;DHT22;9385;48.380;9.744;2022-12-18T08:24:26;-1.50;99.90
18513;DHT22;9385;48.380;9.744;2022-12-18T08:26:52;-1.40;99.90
18513;DHT22;9385;48.380;9.744;2022-12-18T08:29:19;-1.40;99.90
18513;DHT22;9385;48.380;9.744;2022-12-18T08:31:47;-1.40;99.90
18513;DHT22;9385;48.380;9.744;2022-12-18T08:34:15;-1.50;99.90
18513;DHT22;9385;48.380;9.744;2022-12-18T08:36:42;-1.50;99.90
18513;DHT22;9385;48.380;9.744;2022-12-18T08:39:09;-1.50;99.90
18513;DHT22;9385;48.380;9.744;2022-12-18T08:41:36;-1.60;99.90
18513;DHT22;9385;48.380;9.744;2022-12-18T08:44:03;-1.70;99.90
18513;DHT22;9385;48.380;9.744;2022-12-18T08:46:47;-1.70;99.90
18513;DHT22;9385;48.380;9.744;2022-12-18T08:49:16;-1.60;99.90
18513;DHT22;9385;48.380;9.744;2022-12-18T08:51:43;-1.70;99.90
18513;DHT22;9385;48.380;9.744;2022-12-18T08:54:11;-1.70;99.90
18513;DHT22;9385;48.380;9.744;2022-12-18T08:56:39;-1.70;99.90
18513;DHT22;9385;48.380;9.744;2022-12-18T08:59:06;-1.70;99.90
18513;DHT22;9385;48.380;9.744;2022-12-18T09:01:33;-1.60;99.90
18513;DHT22;9385;48.380;9.744;2022-12-18T09:04:00;-1.60;99.90
18513;DHT22;9385;48.380;9.744;2022-12-18T09:06:28;-1.60;99.90
18513;DHT22;9385;48.380;9.744;2022-12-18T09:08:56;-1.70;99.90
18513;DHT22;9385;48.380;9.744;2022-12-18T09:11:25;-1.70;99.90
18513;DHT22;9385;48.380;9.744;2022-12-18T09:13:52;-1.70;99.90
18513;DHT22;9385;48.380;9.744;2022-12-18T09:16:19;-1.70;99.90
18513;DHT22;9385;48.380;9.744;2022-12-18T09:18:47;-1.60;99.90
18513;DHT22;9385;48.380;9.744;2022-12-18T09:21:16;-1.60;99.90
18513;DHT22;9385;48.380;9.744;2022-12-18T09:23:49;-1.60;99.90
18513;DHT22;9385;48.380;9.744;2022-12-18T09:26:16;-1.60;99.90
18513;DHT22;9385;48.380;9.744;2022-12-18T09:28:43;-1.60;99.90
18513;DHT22;9385;48.380;9.744;2022-12-18T09:31:12;-1.50;99.90
18513;DHT22;9385;48.380;9.744;2022-12-18T09:33:39;-1.50;99.90
18513;DHT22;9385;48.380;9.744;2022-12-18T09:36:08;-1.40;99.90
18513;DHT22;9385;48.380;9.744;2022-12-18T09:38:36;-1.40;99.90
18513;DHT22;9385;48.380;9.744;2022-12-18T09:41:06;-1.30;99.90
18513;DHT22;9385;48.380;9.744;2022-12-18T09:43:42;-1.40;99.90
18513;DHT22;9385;48.380;9.744;2022-12-18T09:46:16;-1.50;99.90
18513;DHT22;9385;48.380;9.744;2022-12-18T09:48:46;-1.50;99.90
18513;DHT22;9385;48.380;9.744;2022-12-18T09:51:16;-1.50;99.90
18513;DHT22;9385;48.380;9.744;2022-12-18T09:53:50;-1.50;99.90
18513;DHT22;9385;48.380;9.744;2022-12-18T09:56:20;-1.60;99.90
18513;DHT22;9385;48.380;9.744;2022-12-18T09:58:53;-1.60;99.90
18513;DHT22;9385;48.380;9.744;2022-12-18T10:01:22;-1.50;99.90
18513;DHT22;9385;48.380;9.744;2022-12-18T10:03:50;-1.50;99.90
18513;DHT22;9385;48.380;9.744;2022-12-18T10:06:21;-1.50;99.90
18513;DHT22;9385;48.380;9.744;2022-12-18T10:08:56;-1.40;99.90
18513;DHT22;9385;48.380;9.744;2022-12-18T10:11:34;-1.50;99.90
18513;DHT22;9385;48.380;9.744;2022-12-18T10:14:10;-1.50;99.90
18513;DHT22;9385;48.380;9.744;2022-12-18T10:16:50;-1.40;99.90
18513;DHT22;9385;48.380;9.744;2022-12-18T10:19:33;-1.30;99.90
18513;DHT22;9385;48.380;9.744;2022-12-18T10:22:11;-1.20;99.90
18513;DHT22;9385;48.380;9.744;2022-12-18T10:24:44;-1.20;99.90
18513;DHT22;9385;48.380;9.744;2022-12-18T10:27:18;-1.20;99.90
18513;DHT22;9385;48.380;9.744;2022-12-18T10:29:48;-1.20;99.90
18513;DHT22;9385;48.380;9.744;2022-12-18T10:32:17;-1.10;99.90
18513;DHT22;9385;48.380;9.744;2022-12-18T10:34:48;-1.00;99.90
18513;DHT22;9385;48.380;9.744;2022-12-18T10:37:17;-1.10;99.90
18513;DHT22;9385;48.380;9.744;2022-12-18T10:39:45;-1.10;99.90
18513;DHT22;9385;48.380;9.744;2022-12-18T10:42:18;-1.00;99.90
18513;DHT22;9385;48.380;9.744;2022-12-18T10:44:45;-1.00;99.90
18513;DHT22;9385;48.380;9.744;2022-12-18T10:47:14;-1.00;99.90
18513;DHT22;9385;48.380;9.744;2022-12-18T10:49:49;-1.10;99.90
18513;DHT22;9385;48.380;9.744;2022-12-18T10:52:18;-1.00;99.90
18513;DHT22;9385;48.380;9.744;2022-12-18T10:54:48;-0.90;99.90
18513;DHT22;9385;48.380;9.744;2022-12-18T10:57:29;-0.90;99.90
18513;DHT22;9385;48.380;9.744;2022-12-18T10:59:58;-0.80;99.90
18513;DHT22;9385;48.380;9.744;2022-12-18T11:02:27;-0.90;99.90
18513;DHT22;9385;48.380;9.744;2022-12-18T11:04:55;-0.80;99.90
18513;DHT22;9385;48.380;9.744;2022-12-18T11:07:21;-0.70;99.90
18513;DHT22;9385;48.380;9.744;2022-12-18T11:10:03;-0.80;99.90
18513;DHT22;9385;48.380;9.744;2022-12-18T11:12:31;-0.80;99.90
18513;DHT22;9385;48.380;9.744;2022-12-18T11:14:58;-0.80;99.90
18513;DHT22;9385;48.380;9.744;2022-12-18T11:17:29;-0.70;99.90
18513;DHT22;9385;48.380;9.744;2022-12-18T11:19:58;-0.80;99.90
18513;DHT22;9385;48.380;9.744;2022-12-18T11:22:27;-0.80;99.90
18513;DHT22;9385;48.380;9.744;2022-12-18T11:24:57;-0.90;99.90
18513;DHT22;9385;48.380;9.744;2022-12-18T11:27:25;-0.80;99.90
18513;DHT22;9385;48.380;9.744;2022-12-18T11:30:07;-0.70;99.90
18513;DHT22;9385;48.380;9.744;2022-12-18T11:32:36;-0.60;99.90
18513;DHT22;9385;48.380;9.744;2022-12-18T11:35:13;-0.60;99.90
18513;DHT22;9385;48.380;9.744;2022-12-18T11:37:44;-0.70;99.90
18513;DHT22;9385;48.380;9.744;2022-12-18T11:40:15;-0.80;99.90
18513;DHT22;9385;48.380;9.744;2022-12-18T11:42:50;-0.90;99.90
18513;DHT22;9385;48.380;9.744;2022-12-18T11:45:28;-0.90;99.90
18513;DHT22;9385;48.380;9.744;2022-12-18T11:48:00;-0.80;99.90
18513;DHT22;9385;48.380;9.744;2022-12-18T11:50:32;-0.80;99.90
18513;DHT22;9385;48.380;9.744;2022-12-18T11:53:01;-0.70;99.90
18513;DHT22;9385;48.380;9.744;2022-12-18T11:55:34;-0.70;99.90
18513;DHT22;9385;48.380;9.744;2022-12-18T11:58:09;-0.60;99.90
18513;DHT22;9385;48.380;9.744;2022-12-18T12:00:45;-0.50;99.90
18513;DHT22;9385;48.380;9.744;2022-12-18T12:03:22;-0.60;99.90
18513;DHT22;9385;48.380;9.744;2022-12-18T12:06:01;-0.60;99.90
18513;DHT22;9385;48.380;9.744;2022-12-18T12:08:41;-0.60;99.90
18513;DHT22;9385;48.380;9.744;2022-12-18T12:11:17;-0.50;99.90
18513;DHT22;9385;48.380;9.744;2022-12-18T12:13:55;-0.50;99.90
18513;DHT22;9385;48.380;9.744;2022-12-18T12:16:29;-0.60;99.90
18513;DHT22;9385;48.380;9.744;2022-12-18T12:19:17;-0.60;99.90
18513;DHT22;9385;48.380;9.744;2022-12-18T12:21:51;-0.60;99.90
18513;DHT22;9385;48.380;9.744;2022-12-18T12:24:31;-0.50;99.90
18513;DHT22;9385;48.380;9.744;2022-12-18T12:27:06;-0.50;99.90
18513;DHT22;9385;48.380;9.744;2022-12-18T12:29:45;-0.50;99.90
18513;DHT22;9385;48.380;9.744;2022-12-18T12:32:25;-0.50;99.90
18513;DHT22;9385;48.380;9.744;2022-12-18T12:35:04;-0.60;99.90
18513;DHT22;9385;48.380;9.744;2022-12-18T12:37:39;-0.50;99.90
18513;DHT22;9385;48.380;9.744;2022-12-18T12:40:11;-0.50;99.90
18513;DHT22;9385;48.380;9.744;2022-12-18T12:42:44;-0.50;99.90
18513;DHT22;9385;48.380;9.744;2022-12-18T12:45:36;-0.50;99.90
18513;DHT22;9385;48.380;9.744;2022-12-18T12:48:10;-0.50;99.90
18513;DHT22;9385;48.380;9.744;2022-12-18T12:50:42;-0.50;99.90
18513;DHT22;9385;48.380;9.744;2022-12-18T12:53:19;-0.40;99.90
18513;DHT22;9385;48.380;9.744;2022-12-18T12:55:48;-0.40;99.90
18513;DHT22;9385;48.380;9.744;2022-12-18T12:58:18;-0.60;99.90
18513;DHT22;9385;48.380;9.744;2022-12-18T13:00:55;-0.60;99.90
18513;DHT22;9385;48.380;9.744;2022-12-18T13:03:34;-0.50;99.90
18513;DHT22;9385;48.380;9.744;2022-12-18T13:06:07;-0.60;99.90
18513;DHT22;9385;48.380;9.744;2022-12-18T13:08:52;-0.50;99.90
18513;DHT22;9385;48.380;9.744;2022-12-18T13:11:30;-0.50;99.90
18513;DHT22;9385;48.380;9.744;2022-12-18T13:14:28;-0.50;99.90
18513;DHT22;9385;48.380;9.744;2022-12-18T13:17:27;-0.60;99.90
18513;DHT22;9385;48.380;9.744;2022-12-18T13:20:12;-0.60;99.90
18513;DHT22;9385;48.380;9.744;2022-12-18T13:22:43;-0.70;99.90
18513;DHT22;9385;48.380;9.744;2022-12-18T13:25:29;-0.90;99.90
18513;DHT22;9385;48.380;9.744;2022-12-18T13:28:06;-0.90;99.90
18513;DHT22;9385;48.380;9.744;2022-12-18T13:30:55;-0.80;99.90
18513;DHT22;9385;48.380;9.744;2022-12-18T13:33:49;-0.70;99.90
18513;DHT22;9385;48.380;9.744;2022-12-18T13:36:33;-0.80;99.90
18513;DHT22;9385;48.380;9.744;2022-12-18T13:41:54;-0.70;99.90
18513;DHT22;9385;48.380;9.744;2022-12-18T13:45:00;-0.60;99.90
18513;DHT22;9385;48.380;9.744;2022-12-18T13:47:32;-0.60;99.90
18513;DHT22;9385;48.380;9.744;2022-12-18T13:50:01;-0.60;99.90
18513;DHT22;9385;48.380;9.744;2022-12-18T13:52:37;-0.70;99.90
18513;DHT22;9385;48.380;9.744;2022-12-18T13:55:14;-0.80;99.90
18513;DHT22;9385;48.380;9.744;2022-12-18T13:57:42;-0.80;99.90
18513;DHT22;9385;48.380;9.744;2022-12-18T14:00:31;-0.80;99.90
18513;DHT22;9385;48.380;9.744;2022-12-18T14:02:59;-0.80;99.90
18513;DHT22;9385;48.380;9.744;2022-12-18T14:05:28;-0.80;99.90
18513;DHT22;9385;48.380;9.744;2022-12-18T14:08:01;-0.80;99.90
18513;DHT22;9385;48.380;9.744;2022-12-18T14:10:33;-0.80;99.90
18513;DHT22;9385;48.380;9.744;2022-12-18T14:13:05;-0.80;99.90
18513;DHT22;9385;48.380;9.744;2022-12-18T14:15:34;-0.90;99.90
18513;DHT22;9385;48.380;9.744;2022-12-18T14:18:03;-0.90;99.90
18513;DHT22;9385;48.380;9.744;2022-12-18T14:20:43;-0.80;99.90
18513;DHT22;9385;48.380;9.744;2022-12-18T14:26:21;-0.70;99.90
18513;DHT22;9385;48.380;9.744;2022-12-18T14:28:49;-0.60;99.90
18513;DHT22;9385;48.380;9.744;2022-12-18T14:31:19;-0.60;99.90
18513;DHT22;9385;48.380;9.744;2022-12-18T14:33:47;-0.60;99.90
18513;DHT22;9385;48.380;9.744;2022-12-18T14:36:16;-0.60;99.90
18513;DHT22;9385;48.380;9.744;2022-12-18T14:38:48;-0.60;99.90
18513;DHT22;9385;48.380;9.744;2022-12-18T14:41:18;-0.60;99.90
18513;DHT22;9385;48.380;9.744;2022-12-18T14:43:48;-0.70;99.90
18513;DHT22;9385;48.380;9.744;2022-12-18T14:46:30;-0.80;99.90
18513;DHT22;9385;48.380;9.744;2022-12-18T14:49:01;-0.70;99.90
18513;DHT22;9385;48.380;9.744;2022-12-18T14:51:30;-0.90;99.90
18513;DHT22;9385;48.380;9.744;2022-12-18T14:53:58;-0.90;99.90
18513;DHT22;9385;48.380;9.744;2022-12-18T14:56:29;-0.90;99.90
18513;DHT22;9385;48.380;9.744;2022-12-18T14:58:58;-0.90;99.90
18513;DHT22;9385;48.380;9.744;2022-12-18T15:01:28;-0.90;99.90
18513;DHT22;9385;48.380;9.744;2022-12-18T15:03:57;-0.80;99.90
18513;DHT22;9385;48.380;9.744;2022-12-18T15:06:28;-0.80;99.90
18513;DHT22;9385;48.380;9.744;2022-12-18T15:08:55;-0.80;99.90
18513;DHT22;9385;48.380;9.744;2022-12-18T15:11:46;-0.80;99.90
18513;DHT22;9385;48.380;9.744;2022-12-18T15:14:23;-0.80;99.90
18513;DHT22;9385;48.380;9.744;2022-12-18T15:16:52;-0.80;99.90
18513;DHT22;9385;48.380;9.744;2022-12-18T15:19:21;-0.80;99.90
18513;DHT22;9385;48.380;9.744;2022-12-18T15:21:48;-0.80;99.90
18513;DHT22;9385;48.380;9.744;2022-12-18T15:24:18;-0.90;99.90
18513;DHT22;9385;48.380;9.744;2022-12-18T15:26:46;-0.90;99.90
18513;DHT22;9385;48.380;9.744;2022-12-18T15:29:20;-0.90;99.90
18513;DHT22;9385;48.380;9.744;2022-12-18T15:31:59;-0.90;99.90
18513;DHT22;9385;48.380;9.744;2022-12-18T15:34:27;-0.90;99.90
18513;DHT22;9385;48.380;9.744;2022-12-18T15:36:54;-0.90;99.90
18513;DHT22;9385;48.380;9.744;2022-12-18T15:39:21;-0.80;99.90
18513;DHT22;9385;48.380;9.744;2022-12-18T15:41:49;-1.00;99.90
18513;DHT22;9385;48.380;9.744;2022-12-18T15:44:34;-1.10;99.90
18513;DHT22;9385;48.380;9.744;2022-12-18T15:47:01;-1.10;99.90
18513;DHT22;9385;48.380;9.744;2022-12-18T15:49:27;-1.20;99.90
18513;DHT22;9385;48.380;9.744;2022-12-18T15:51:57;-1.10;99.90
18513;DHT22;9385;48.380;9.744;2022-12-18T15:54:24;-1.20;99.90
18513;DHT22;9385;48.380;9.744;2022-12-18T15:57:09;-1.30;99.90
18513;DHT22;9385;48.380;9.744;2022-12-18T15:59:52;-1.20;99.90
18513;DHT22;9385;48.380;9.744;2022-12-18T16:02:22;-1.10;99.90
18513;DHT22;9385;48.380;9.744;2022-12-18T16:04:49;-1.20;99.90
18513;DHT22;9385;48.380;9.744;2022-12-18T16:07:16;-1.20;99.90
18513;DHT22;9385;48.380;9.744;2022-12-18T16:09:43;-1.20;99.90
18513;DHT22;9385;48.380;9.744;2022-12-18T16:12:18;-1.30;99.90
18513;DHT22;9385;48.380;9.744;2022-12-18T16:14:45;-1.40;99.90